Airfield :
LOGIN :

Register | Disclaimer

   EN    FR    IT 

 










Legend :    VFR   Marginal VFR   IFR   Intensive IFR   Very Intensive IFR
Visi :
Ceiling :
>= 8 km
>= 3000ft
5 to 8 km
1000 to 3000 ft
1500m to 5 km
500 to 1000 ft
800 to 1500m
200 to 500 ft
< 800m
< 200 ft
Symbols :   Thunderstorms  Fog  Heavy snow  Heavy precipitations  Wind > 20 kt
SIGMETs :     Misc.  Thunderstorms  Icing  Turbulence  Mountain Waves  Volcanic Ashes






- Airport Elevation : 375 ft
- IATA code : MST


EHBK - Maastricht Aachen

CURRENT METAR :
  • 130455Z AUTO 21006KT 4600 BR FEW040 M02/M03 Q1031 BECMG 7000 NSW

EXPIRED METARs :
  • 130425Z AUTO 21005KT 4700 BR FEW046 M02/M03 Q1031 BECMG 6000 NSW
  • 130355Z AUTO 21005KT 5000 NCD M01/M02 Q1031
  • 130325Z AUTO 21005KT 6000 FEW038 M01/M02 Q1031
  • 130255Z AUTO 22006KT 6000 NCD M02/M03 Q1031
  • 130225Z AUTO 23005KT 9000 FEW037 M01/M02 Q1031
  • 130155Z AUTO 23004KT 9000 BKN026 M01/M02 Q1031

TAF AMD TAF EHBK
Valid from the 13 at 03:00 until the 14 at 06:00 UTC


130323Z 1303/1406 23004KT 5000 BR MIFG FEW040
BECMG 1305/1307 CAVOK
PROB30
TEMPO 1314/1320 33010KT 7000 -SHRA FEW020TCU BKN030



MET'MAP, your aeronautical weather chart ! - Copyright ORBIFLY December 2007 - Disclaimer

ORBIFLY MET'MAP TEAM :

Programming & Development : Alexandra Zaïnal
Concept & original design : Baudouin d'Aumeries
Assistance for programming : Marc-Olivier Méhu
Technical & hardware support : Manuel Goepfert

Contact : metmap@orbifly.com




SOURCES & CREDITS :

   NOAA